Time;durP1;ratioP1;P1;durP2;ratioP2;P2;SDS_P1;SDS_P2;PMS_P1;PMS_P2;Temp;Humidity;BMP_temperature;BMP_pressure;BME280_temperature;BME280_humidity;BME280_pressure;Samples;Min_cycle;Max_cycle;Signal;HPM_P1;HPM_P2
2024/02/11 00:01:38;;;;;;;;;;;3.10;100.00;;;;;;5105945;28;19957;-69
2024/02/11 00:04:05;;;;;;;;;;;3.10;100.00;;;;;;5094951;28;19928;-69
2024/02/11 00:06:32;;;;;;;;;;;3.20;100.00;;;;;;5100883;28;19934;-69
2024/02/11 00:08:58;;;;;;;;;;;3.10;100.00;;;;;;5096843;28;19970;-69
2024/02/11 00:11:28;;;;;;;;;;;3.20;100.00;;;;;;5095841;28;19934;-67
2024/02/11 00:13:55;;;;;;;;;;;3.20;100.00;;;;;;5094359;28;19935;-67
2024/02/11 00:16:23;;;;;;;;;;;3.20;100.00;;;;;;5083772;28;19924;-67
2024/02/11 00:18:51;;;;;;;;;;;3.20;100.00;;;;;;5099371;28;19944;-67
2024/02/11 00:21:18;;;;;;;;;;;3.20;100.00;;;;;;5095115;28;19966;-67
2024/02/11 00:23:45;;;;;;;;;;;3.20;100.00;;;;;;5098157;28;20018;-67
2024/02/11 00:26:12;;;;;;;;;;;3.20;100.00;;;;;;5097868;28;20429;-67
2024/02/11 00:28:39;;;;;;;;;;;3.20;100.00;;;;;;5091351;28;20027;-67
2024/02/11 00:31:06;;;;;;;;;;;3.20;100.00;;;;;;5094303;28;20019;-67
2024/02/11 00:33:33;;;;;;;;;;;3.20;100.00;;;;;;5092003;28;19996;-67
2024/02/11 00:36:01;;;;;;;;;;;3.20;100.00;;;;;;5093377;28;20610;-67
2024/02/11 00:38:28;;;;;;;;;;;3.20;100.00;;;;;;5092400;28;20258;-67
2024/02/11 00:40:54;;;;;;;;;;;3.20;100.00;;;;;;5075835;28;19974;-67
2024/02/11 00:43:21;;;;;;;;;;;3.20;100.00;;;;;;5080798;28;20615;-67
2024/02/11 00:45:48;;;;;;;;;;;3.20;100.00;;;;;;5097139;28;20026;-68
2024/02/11 00:48:14;;;;;;;;;;;3.20;100.00;;;;;;5104109;27;19981;-68
2024/02/11 00:50:41;;;;;;;;;;;3.20;100.00;;;;;;5091361;28;20018;-68
2024/02/11 00:53:08;;;;;;;;;;;3.20;100.00;;;;;;5100860;28;19977;-68
2024/02/11 00:55:36;;;;;;;;;;;3.20;100.00;;;;;;5077845;28;19928;-68
2024/02/11 00:58:03;;;;;;;;;;;3.20;100.00;;;;;;5090017;28;19928;-68
2024/02/11 01:00:30;;;;;;;;;;;3.20;100.00;;;;;;5099070;28;20035;-68
2024/02/11 01:02:57;;;;;;;;;;;3.20;100.00;;;;;;5087546;28;19932;-68
2024/02/11 01:05:24;;;;;;;;;;;3.20;100.00;;;;;;5098449;28;20602;-68
2024/02/11 01:07:51;;;;;;;;;;;3.20;100.00;;;;;;5103051;28;19938;-68
2024/02/11 01:10:18;;;;;;;;;;;3.20;100.00;;;;;;5086512;28;19934;-68
2024/02/11 01:12:45;;;;;;;;;;;3.20;100.00;;;;;;5089066;28;20001;-68
2024/02/11 01:15:13;;;;;;;;;;;3.20;100.00;;;;;;5093814;28;19935;-68
2024/02/11 01:17:42;;;;;;;;;;;3.20;100.00;;;;;;5092164;28;19928;-68
2024/02/11 01:20:16;;;;;;;;;;;3.20;100.00;;;;;;5099585;28;20673;-68
2024/02/11 01:22:44;;;;;;;;;;;3.30;100.00;;;;;;5066946;28;19924;-69
2024/02/11 01:25:11;;;;;;;;;;;3.20;100.00;;;;;;5099621;28;20001;-69
2024/02/11 01:27:38;;;;;;;;;;;3.30;100.00;;;;;;5093591;28;20037;-69
2024/02/11 01:30:06;;;;;;;;;;;3.30;100.00;;;;;;5089132;28;19981;-69
2024/02/11 01:32:32;;;;;;;;;;;3.30;100.00;;;;;;5093183;28;19928;-69
2024/02/11 01:34:59;;;;;;;;;;;3.30;100.00;;;;;;5088436;28;20014;-68
2024/02/11 01:37:26;;;;;;;;;;;3.30;100.00;;;;;;5086907;28;20443;-68
2024/02/11 01:39:53;;;;;;;;;;;3.30;100.00;;;;;;5094766;28;20299;-69
2024/02/11 01:42:20;;;;;;;;;;;3.30;100.00;;;;;;5083586;28;19931;-67
2024/02/11 01:44:47;;;;;;;;;;;3.30;100.00;;;;;;5074958;28;19938;-69
2024/02/11 01:47:13;;;;;;;;;;;3.20;100.00;;;;;;5077786;28;20046;-68
2024/02/11 01:49:40;;;;;;;;;;;3.30;100.00;;;;;;5101396;28;20453;-68
2024/02/11 01:52:07;;;;;;;;;;;3.30;100.00;;;;;;5093048;28;19938;-67
2024/02/11 01:54:35;;;;;;;;;;;3.30;100.00;;;;;;5107076;28;20662;-67
2024/02/11 01:57:02;;;;;;;;;;;3.30;100.00;;;;;;5084962;28;20022;-69
2024/02/11 01:59:30;;;;;;;;;;;3.20;100.00;;;;;;5103194;28;19978;-69
2024/02/11 02:01:58;;;;;;;;;;;3.20;100.00;;;;;;5077901;28;19979;-69
2024/02/11 02:04:26;;;;;;;;;;;3.20;100.00;;;;;;5094797;28;19968;-69
2024/02/11 02:06:53;;;;;;;;;;;3.20;100.00;;;;;;5099292;28;19928;-69
2024/02/11 02:09:20;;;;;;;;;;;3.20;100.00;;;;;;5118263;27;19932;-69
2024/02/11 02:11:46;;;;;;;;;;;3.20;100.00;;;;;;5098355;28;19963;-69
2024/02/11 02:14:13;;;;;;;;;;;3.20;100.00;;;;;;5093024;28;19977;-67
2024/02/11 02:16:43;;;;;;;;;;;3.20;100.00;;;;;;5097760;28;19973;-67
2024/02/11 02:19:11;;;;;;;;;;;3.20;100.00;;;;;;5076639;28;19976;-67
2024/02/11 02:21:45;;;;;;;;;;;3.20;100.00;;;;;;5097828;28;19928;-67
2024/02/11 02:24:13;;;;;;;;;;;3.20;100.00;;;;;;5073407;28;20756;-67
2024/02/11 02:26:40;;;;;;;;;;;3.20;100.00;;;;;;5096298;28;20028;-67
2024/02/11 02:29:06;;;;;;;;;;;3.30;100.00;;;;;;5095733;28;20416;-67
2024/02/11 02:31:34;;;;;;;;;;;3.20;100.00;;;;;;5095894;28;19928;-67
2024/02/11 02:34:01;;;;;;;;;;;3.20;100.00;;;;;;5098899;28;19927;-67
2024/02/11 02:36:28;;;;;;;;;;;3.30;100.00;;;;;;5098427;28;19951;-67
2024/02/11 02:38:55;;;;;;;;;;;3.30;100.00;;;;;;5095729;28;19936;-67
2024/02/11 02:41:22;;;;;;;;;;;3.20;100.00;;;;;;5102496;28;20599;-68
2024/02/11 02:43:48;;;;;;;;;;;3.30;100.00;;;;;;5098080;28;19928;-68
2024/02/11 02:46:15;;;;;;;;;;;3.20;100.00;;;;;;5097190;28;19963;-68
2024/02/11 02:48:43;;;;;;;;;;;3.30;100.00;;;;;;5097593;28;20514;-68
2024/02/11 02:51:11;;;;;;;;;;;3.20;100.00;;;;;;5099842;28;19927;-68
2024/02/11 02:53:38;;;;;;;;;;;3.30;100.00;;;;;;5075470;28;20322;-68
2024/02/11 02:56:05;;;;;;;;;;;3.30;100.00;;;;;;5099350;28;20326;-68
2024/02/11 02:58:31;;;;;;;;;;;3.20;100.00;;;;;;5097030;28;19935;-68
2024/02/11 03:01:00;;;;;;;;;;;3.20;100.00;;;;;;5091478;28;19932;-70
2024/02/11 03:03:27;;;;;;;;;;;3.20;100.00;;;;;;5088837;28;19978;-70
2024/02/11 03:05:54;;;;;;;;;;;3.20;100.00;;;;;;5100754;28;19928;-70
2024/02/11 03:08:20;;;;;;;;;;;3.20;100.00;;;;;;5096060;28;19928;-70
2024/02/11 03:10:47;;;;;;;;;;;3.20;100.00;;;;;;5073977;28;19928;-70
2024/02/11 03:13:14;;;;;;;;;;;3.20;100.00;;;;;;5088668;28;19928;-70
2024/02/11 03:15:41;;;;;;;;;;;3.20;100.00;;;;;;5081805;28;19935;-70
2024/02/11 03:18:08;;;;;;;;;;;3.20;100.00;;;;;;5090864;28;19928;-70
2024/02/11 03:20:35;;;;;;;;;;;3.20;100.00;;;;;;5086366;28;20592;-70
2024/02/11 03:23:02;;;;;;;;;;;3.20;100.00;;;;;;5093067;28;19928;-70
2024/02/11 03:25:29;;;;;;;;;;;3.20;100.00;;;;;;5098944;28;19932;-70
2024/02/11 03:27:55;;;;;;;;;;;3.20;100.00;;;;;;5092859;28;20050;-70
2024/02/11 03:30:22;;;;;;;;;;;3.20;100.00;;;;;;5089731;28;19963;-70
2024/02/11 03:32:49;;;;;;;;;;;3.20;100.00;;;;;;5071719;28;19932;-70
2024/02/11 03:35:17;;;;;;;;;;;3.20;100.00;;;;;;5088608;28;19931;-70
2024/02/11 03:37:43;;;;;;;;;;;3.20;100.00;;;;;;5095597;28;19928;-70
2024/02/11 03:40:12;;;;;;;;;;;3.20;100.00;;;;;;5094212;28;19931;-70
2024/02/11 03:42:39;;;;;;;;;;;3.20;100.00;;;;;;5084532;28;20307;-70
2024/02/11 03:45:09;;;;;;;;;;;3.20;100.00;;;;;;5090523;28;19967;-70
2024/02/11 03:47:36;;;;;;;;;;;3.20;100.00;;;;;;5096187;28;19927;-70
2024/02/11 03:50:04;;;;;;;;;;;3.20;100.00;;;;;;5086186;28;20623;-71
2024/02/11 03:52:34;;;;;;;;;;;3.20;100.00;;;;;;5115659;27;20462;-70
2024/02/11 03:55:07;;;;;;;;;;;3.20;100.00;;;;;;5093062;28;19927;-70
2024/02/11 03:57:34;;;;;;;;;;;3.20;100.00;;;;;;5093095;28;19928;-70
2024/02/11 04:00:22;;;;;;;;;;;3.20;100.00;;;;;;5091581;28;20348;-70
2024/02/11 04:02:48;;;;;;;;;;;3.20;100.00;;;;;;5089875;28;19938;-70
2024/02/11 04:05:16;;;;;;;;;;;3.20;100.00;;;;;;5100993;28;19928;-70
2024/02/11 04:07:45;;;;;;;;;;;3.20;100.00;;;;;;5068265;28;19935;-70
2024/02/11 04:10:18;;;;;;;;;;;3.20;100.00;;;;;;5087880;28;20724;-70
2024/02/11 04:12:52;;;;;;;;;;;3.20;100.00;;;;;;5088674;28;19928;-70
2024/02/11 04:15:19;;;;;;;;;;;3.20;100.00;;;;;;5072110;28;20001;-70
2024/02/11 04:17:48;;;;;;;;;;;3.20;100.00;;;;;;5094577;28;19928;-70
2024/02/11 04:20:23;;;;;;;;;;;3.20;100.00;;;;;;5086922;28;19935;-70
2024/02/11 04:22:52;;;;;;;;;;;3.20;100.00;;;;;;5093999;28;20026;-70
2024/02/11 04:25:22;;;;;;;;;;;3.20;100.00;;;;;;5089269;28;19924;-70
2024/02/11 04:27:49;;;;;;;;;;;3.20;100.00;;;;;;5102878;27;19932;-70
2024/02/11 04:30:19;;;;;;;;;;;3.30;100.00;;;;;;5091483;28;19928;-70
2024/02/11 04:32:47;;;;;;;;;;;3.30;100.00;;;;;;5069563;28;19928;-70
2024/02/11 04:35:15;;;;;;;;;;;3.30;100.00;;;;;;5089528;28;20300;-70
2024/02/11 04:37:49;;;;;;;;;;;3.30;100.00;;;;;;5079989;28;20562;-70
2024/02/11 04:40:16;;;;;;;;;;;3.30;100.00;;;;;;5081793;28;20418;-70
2024/02/11 04:42:44;;;;;;;;;;;3.30;100.00;;;;;;5094395;28;19927;-70
2024/02/11 04:45:15;;;;;;;;;;;3.30;100.00;;;;;;5089844;28;20664;-70
2024/02/11 04:47:46;;;;;;;;;;;3.30;100.00;;;;;;5087969;28;19928;-71
2024/02/11 04:50:15;;;;;;;;;;;3.30;100.00;;;;;;5073140;28;19928;-71
2024/02/11 04:52:48;;;;;;;;;;;3.30;100.00;;;;;;5072381;28;20015;-70
2024/02/11 04:55:18;;;;;;;;;;;3.30;100.00;;;;;;5092887;28;19928;-69
2024/02/11 04:57:45;;;;;;;;;;;3.30;100.00;;;;;;5093596;28;19934;-71
2024/02/11 05:00:23;;;;;;;;;;;3.30;100.00;;;;;;5074302;28;20007;-71
2024/02/11 05:02:53;;;;;;;;;;;3.30;100.00;;;;;;5089719;28;19938;-71
2024/02/11 05:05:28;;;;;;;;;;;3.30;100.00;;;;;;5078860;28;20583;-71
2024/02/11 05:07:56;;;;;;;;;;;3.30;100.00;;;;;;5071948;28;19928;-71
2024/02/11 05:10:23;;;;;;;;;;;3.30;100.00;;;;;;5090865;28;20028;-72
2024/02/11 05:12:50;;;;;;;;;;;3.30;100.00;;;;;;5086466;28;19979;-71
2024/02/11 05:15:20;;;;;;;;;;;3.30;100.00;;;;;;5077774;28;19928;-71
2024/02/11 05:17:48;;;;;;;;;;;3.30;100.00;;;;;;5074072;28;20022;-71
2024/02/11 05:20:22;;;;;;;;;;;3.30;100.00;;;;;;5084068;28;19928;-71
2024/02/11 05:22:52;;;;;;;;;;;3.30;100.00;;;;;;5085152;28;19939;-71
2024/02/11 05:25:22;;;;;;;;;;;3.30;100.00;;;;;;5092740;28;19932;-71
2024/02/11 05:27:55;;;;;;;;;;;3.30;100.00;;;;;;5085654;28;19975;-71
2024/02/11 05:30:23;;;;;;;;;;;3.30;100.00;;;;;;5087920;28;19928;-71
2024/02/11 05:32:51;;;;;;;;;;;3.30;100.00;;;;;;5089974;28;20044;-71
2024/02/11 05:35:19;;;;;;;;;;;3.30;100.00;;;;;;5074049;28;20380;-71
2024/02/11 05:37:46;;;;;;;;;;;3.30;100.00;;;;;;5092305;28;19943;-71
2024/02/11 05:40:35;;;;;;;;;;;3.30;100.00;;;;;;5087181;28;19932;-71
2024/02/11 05:43:03;;;;;;;;;;;3.30;100.00;;;;;;5098086;28;19934;-71
2024/02/11 05:45:30;;;;;;;;;;;3.30;100.00;;;;;;5088598;28;19932;-71
2024/02/11 05:47:57;;;;;;;;;;;3.30;100.00;;;;;;5101789;28;19981;-71
2024/02/11 05:50:26;;;;;;;;;;;3.30;100.00;;;;;;5075506;28;19928;-71
2024/02/11 05:52:53;;;;;;;;;;;3.30;100.00;;;;;;5086057;28;20627;-71
2024/02/11 05:55:20;;;;;;;;;;;3.30;100.00;;;;;;5096873;28;19934;-70
2024/02/11 05:57:48;;;;;;;;;;;3.30;100.00;;;;;;5087243;28;19928;-69
2024/02/11 06:00:18;;;;;;;;;;;3.30;100.00;;;;;;5084371;28;20017;-66
2024/02/11 06:02:46;;;;;;;;;;;3.30;100.00;;;;;;5092802;28;19955;-66
2024/02/11 06:05:14;;;;;;;;;;;3.30;100.00;;;;;;5065599;28;20091;-68
2024/02/11 06:07:41;;;;;;;;;;;3.30;100.00;;;;;;5079940;28;19975;-68
2024/02/11 06:10:08;;;;;;;;;;;3.30;100.00;;;;;;5086250;28;20023;-69
2024/02/11 06:12:36;;;;;;;;;;;3.30;100.00;;;;;;5102829;28;20106;-68
2024/02/11 06:15:03;;;;;;;;;;;3.30;100.00;;;;;;5091108;28;20003;-68
2024/02/11 06:17:31;;;;;;;;;;;3.30;100.00;;;;;;5086432;28;19932;-68
2024/02/11 06:19:58;;;;;;;;;;;3.30;100.00;;;;;;5088322;28;20027;-68
2024/02/11 06:22:25;;;;;;;;;;;3.30;100.00;;;;;;5109180;28;19947;-68
2024/02/11 06:24:52;;;;;;;;;;;3.40;100.00;;;;;;5102867;28;19924;-66
2024/02/11 06:27:19;;;;;;;;;;;3.30;100.00;;;;;;5059274;28;19963;-68
2024/02/11 06:29:46;;;;;;;;;;;3.30;100.00;;;;;;5071989;28;20011;-68
2024/02/11 06:32:12;;;;;;;;;;;3.40;100.00;;;;;;5089538;28;19932;-68
2024/02/11 06:34:40;;;;;;;;;;;3.40;100.00;;;;;;5094888;28;19928;-68
2024/02/11 06:37:07;;;;;;;;;;;3.40;100.00;;;;;;5084126;28;19936;-68
2024/02/11 06:39:36;;;;;;;;;;;3.40;100.00;;;;;;5090297;28;19978;-68
2024/02/11 06:42:03;;;;;;;;;;;3.40;100.00;;;;;;5092548;28;20017;-68
2024/02/11 06:44:30;;;;;;;;;;;3.40;100.00;;;;;;5092950;28;19927;-71
2024/02/11 06:46:56;;;;;;;;;;;3.40;100.00;;;;;;5095742;28;19935;-71
2024/02/11 06:49:24;;;;;;;;;;;3.40;100.00;;;;;;5092928;28;19932;-71
2024/02/11 06:51:51;;;;;;;;;;;3.40;100.00;;;;;;5097811;28;20192;-71
2024/02/11 06:54:18;;;;;;;;;;;3.40;100.00;;;;;;5102242;28;19932;-71
2024/02/11 06:56:47;;;;;;;;;;;3.50;100.00;;;;;;5095036;28;20671;-71
2024/02/11 06:59:14;;;;;;;;;;;3.50;100.00;;;;;;5091390;28;19979;-71
2024/02/11 07:01:42;;;;;;;;;;;3.50;100.00;;;;;;5085651;28;19993;-71
2024/02/11 07:04:12;;;;;;;;;;;3.50;100.00;;;;;;5084375;28;20816;-71
2024/02/11 07:06:45;;;;;;;;;;;3.50;100.00;;;;;;5080226;28;19928;-71
2024/02/11 07:09:12;;;;;;;;;;;3.60;100.00;;;;;;5091012;28;19924;-71
2024/02/11 07:11:40;;;;;;;;;;;3.60;100.00;;;;;;5084344;28;19928;-71
2024/02/11 07:14:07;;;;;;;;;;;3.60;100.00;;;;;;5098447;28;20082;-71
2024/02/11 07:16:36;;;;;;;;;;;3.60;100.00;;;;;;5088796;28;19993;-72
2024/02/11 07:19:03;;;;;;;;;;;3.60;100.00;;;;;;5084622;28;19928;-71
2024/02/11 07:21:31;;;;;;;;;;;3.60;100.00;;;;;;5083820;28;19928;-71
2024/02/11 07:23:58;;;;;;;;;;;3.60;100.00;;;;;;5089774;28;19963;-71
2024/02/11 07:26:25;;;;;;;;;;;3.60;100.00;;;;;;5093320;28;19928;-71
2024/02/11 07:28:53;;;;;;;;;;;3.60;100.00;;;;;;5082148;28;20453;-69
2024/02/11 07:31:19;;;;;;;;;;;3.60;100.00;;;;;;5082952;28;19939;-69
2024/02/11 07:33:46;;;;;;;;;;;3.60;100.00;;;;;;5092041;28;19928;-72
2024/02/11 07:36:13;;;;;;;;;;;3.60;100.00;;;;;;5083652;28;19975;-71
2024/02/11 07:38:40;;;;;;;;;;;3.60;100.00;;;;;;5091158;28;19928;-69
2024/02/11 07:41:08;;;;;;;;;;;3.60;100.00;;;;;;5068785;28;19938;-70
2024/02/11 07:43:34;;;;;;;;;;;3.60;100.00;;;;;;5091273;28;19984;-71
2024/02/11 07:46:01;;;;;;;;;;;3.60;100.00;;;;;;5087901;28;19928;-70
2024/02/11 07:48:28;;;;;;;;;;;3.50;100.00;;;;;;5071273;28;20023;-70
2024/02/11 07:50:55;;;;;;;;;;;3.60;100.00;;;;;;5087335;28;20044;-70
2024/02/11 07:53:22;;;;;;;;;;;3.60;100.00;;;;;;5088891;28;19932;-70
2024/02/11 07:55:48;;;;;;;;;;;3.60;100.00;;;;;;5072541;28;19938;-70
2024/02/11 07:58:15;;;;;;;;;;;3.60;100.00;;;;;;5083867;28;20026;-70
2024/02/11 08:00:42;;;;;;;;;;;3.70;100.00;;;;;;5085339;28;19975;-70
2024/02/11 08:03:09;;;;;;;;;;;3.70;100.00;;;;;;5084141;28;21603;-70
2024/02/11 08:05:36;;;;;;;;;;;3.70;100.00;;;;;;5083236;28;19927;-70
2024/02/11 08:08:03;;;;;;;;;;;3.70;100.00;;;;;;5093253;28;20505;-69
2024/02/11 08:10:30;;;;;;;;;;;3.60;100.00;;;;;;5102157;27;19935;-70
2024/02/11 08:12:56;;;;;;;;;;;3.70;100.00;;;;;;5084333;28;19928;-69
2024/02/11 08:15:23;;;;;;;;;;;3.70;100.00;;;;;;5087208;28;19927;-69
2024/02/11 08:17:50;;;;;;;;;;;3.70;100.00;;;;;;5076720;28;19927;-69
2024/02/11 08:20:18;;;;;;;;;;;3.80;100.00;;;;;;5076651;28;19983;-68
2024/02/11 08:22:46;;;;;;;;;;;3.80;100.00;;;;;;5088683;28;19975;-67
2024/02/11 08:25:13;;;;;;;;;;;3.80;100.00;;;;;;5079425;28;19924;-68
2024/02/11 08:27:40;;;;;;;;;;;3.80;100.00;;;;;;5091216;28;19928;-68
2024/02/11 08:30:11;;;;;;;;;;;3.90;100.00;;;;;;5084554;28;19931;-68
2024/02/11 08:32:38;;;;;;;;;;;3.90;100.00;;;;;;5083394;28;19928;-67
2024/02/11 08:35:05;;;;;;;;;;;3.90;100.00;;;;;;5080031;28;19928;-67
2024/02/11 08:37:32;;;;;;;;;;;3.80;100.00;;;;;;5078195;28;19934;-67
2024/02/11 08:39:59;;;;;;;;;;;3.80;100.00;;;;;;5084990;22;19932;-68
2024/02/11 08:42:27;;;;;;;;;;;3.80;100.00;;;;;;5056264;28;19990;-68
2024/02/11 08:44:57;;;;;;;;;;;3.80;100.00;;;;;;5060675;28;19994;-68
2024/02/11 08:47:24;;;;;;;;;;;3.90;100.00;;;;;;5060661;28;19995;-71
2024/02/11 08:49:51;;;;;;;;;;;3.90;100.00;;;;;;5061298;28;19971;-69
2024/02/11 08:52:18;;;;;;;;;;;3.90;100.00;;;;;;5060839;28;19935;-69
2024/02/11 08:54:45;;;;;;;;;;;3.90;100.00;;;;;;5060762;28;20009;-70
2024/02/11 08:57:14;;;;;;;;;;;4.00;100.00;;;;;;5061534;28;20354;-70
2024/02/11 08:59:46;;;;;;;;;;;3.90;100.00;;;;;;5063956;28;20025;-67
2024/02/11 09:02:24;;;;;;;;;;;4.00;100.00;;;;;;5058219;28;20018;-66
2024/02/11 09:04:53;;;;;;;;;;;3.90;100.00;;;;;;5059615;28;20015;-69
2024/02/11 09:07:22;;;;;;;;;;;3.90;100.00;;;;;;5059580;28;19971;-71
2024/02/11 09:09:51;;;;;;;;;;;3.90;100.00;;;;;;5061519;28;20381;-71
2024/02/11 09:12:18;;;;;;;;;;;3.90;100.00;;;;;;5057881;28;19928;-71
2024/02/11 09:14:47;;;;;;;;;;;3.90;100.00;;;;;;5055479;28;19973;-71
2024/02/11 09:17:13;;;;;;;;;;;3.80;100.00;;;;;;5056020;28;19967;-71
2024/02/11 09:19:41;;;;;;;;;;;3.80;100.00;;;;;;5053545;28;20412;-71
2024/02/11 09:22:08;;;;;;;;;;;3.80;100.00;;;;;;5060914;28;19936;-71
2024/02/11 09:24:34;;;;;;;;;;;3.80;100.00;;;;;;5060915;28;19975;-70
2024/02/11 09:27:01;;;;;;;;;;;3.80;100.00;;;;;;5058673;28;20055;-70
2024/02/11 09:29:28;;;;;;;;;;;3.80;100.00;;;;;;5055273;28;19924;-69
2024/02/11 09:31:54;;;;;;;;;;;3.70;100.00;;;;;;5061204;28;19978;-68
2024/02/11 09:34:22;;;;;;;;;;;3.70;100.00;;;;;;5061673;28;19928;-69
2024/02/11 09:36:49;;;;;;;;;;;3.70;100.00;;;;;;5060745;28;19957;-70
2024/02/11 09:39:16;;;;;;;;;;;3.70;100.00;;;;;;5055283;28;19933;-74
2024/02/11 09:41:43;;;;;;;;;;;3.70;100.00;;;;;;5056322;28;19986;-71
2024/02/11 09:44:10;;;;;;;;;;;3.70;100.00;;;;;;5061783;28;19936;-72
2024/02/11 09:46:40;;;;;;;;;;;3.60;100.00;;;;;;5062431;28;19936;-72
2024/02/11 09:49:08;;;;;;;;;;;3.60;100.00;;;;;;5058604;28;19940;-72
2024/02/11 09:51:35;;;;;;;;;;;3.60;100.00;;;;;;5054911;28;19969;-72
2024/02/11 09:54:06;;;;;;;;;;;3.60;100.00;;;;;;5059689;28;19935;-72
2024/02/11 09:56:33;;;;;;;;;;;3.60;100.00;;;;;;5060875;28;19935;-71
2024/02/11 09:59:00;;;;;;;;;;;3.60;100.00;;;;;;5052515;28;19933;-73
2024/02/11 10:01:32;;;;;;;;;;;3.60;100.00;;;;;;5056590;28;19932;-73
2024/02/11 10:04:00;;;;;;;;;;;3.70;100.00;;;;;;5065923;28;20412;-72
2024/02/11 10:06:33;;;;;;;;;;;3.70;100.00;;;;;;5066719;28;20503;-72
2024/02/11 10:09:04;;;;;;;;;;;3.60;100.00;;;;;;5063622;28;19982;-73
2024/02/11 10:11:31;;;;;;;;;;;3.70;100.00;;;;;;5063956;28;19940;-73
2024/02/11 10:13:59;;;;;;;;;;;3.60;100.00;;;;;;5064629;28;19929;-73
2024/02/11 10:16:29;;;;;;;;;;;3.60;100.00;;;;;;5064700;28;19936;-72
2024/02/11 10:18:59;;;;;;;;;;;3.60;100.00;;;;;;5062329;28;20009;-71
2024/02/11 10:21:26;;;;;;;;;;;3.60;100.00;;;;;;5061164;28;19928;-71
2024/02/11 10:23:54;;;;;;;;;;;3.60;100.00;;;;;;5060638;28;19929;-71
2024/02/11 10:26:20;;;;;;;;;;;3.60;100.00;;;;;;5062392;28;19978;-71
2024/02/11 10:28:48;;;;;;;;;;;3.60;100.00;;;;;;5069941;28;20505;-71
2024/02/11 10:31:15;;;;;;;;;;;3.60;100.00;;;;;;5071723;22;19933;-71
2024/02/11 10:33:42;;;;;;;;;;;3.70;100.00;;;;;;5037239;28;20012;-71
2024/02/11 10:36:11;;;;;;;;;;;3.70;100.00;;;;;;5044601;28;19960;-71
2024/02/11 10:38:39;;;;;;;;;;;3.60;100.00;;;;;;5035414;28;19924;-71
2024/02/11 10:41:06;;;;;;;;;;;3.60;100.00;;;;;;5033669;28;19929;-71
2024/02/11 10:43:33;;;;;;;;;;;3.60;100.00;;;;;;5036567;28;19929;-70
2024/02/11 10:46:03;;;;;;;;;;;3.60;100.00;;;;;;5036251;28;19986;-71
2024/02/11 10:48:29;;;;;;;;;;;3.70;100.00;;;;;;5018470;28;20059;-69
2024/02/11 10:50:57;;;;;;;;;;;3.60;100.00;;;;;;5033716;28;19936;-70
2024/02/11 10:53:25;;;;;;;;;;;3.60;100.00;;;;;;5015198;28;20000;-69
2024/02/11 10:55:53;;;;;;;;;;;3.60;100.00;;;;;;5039582;28;19928;-69
2024/02/11 10:58:22;;;;;;;;;;;3.60;100.00;;;;;;5036062;28;19939;-69
2024/02/11 11:00:51;;;;;;;;;;;3.60;100.00;;;;;;5042085;28;20047;-69
2024/02/11 11:03:26;;;;;;;;;;;3.60;100.00;;;;;;5032880;28;20306;-69
2024/02/11 11:05:55;;;;;;;;;;;3.70;100.00;;;;;;5019799;28;19928;-69
2024/02/11 11:08:23;;;;;;;;;;;3.70;100.00;;;;;;5032212;28;19929;-69
2024/02/11 11:10:50;;;;;;;;;;;3.70;100.00;;;;;;5040948;28;20047;-69
2024/02/11 11:13:23;;;;;;;;;;;3.70;100.00;;;;;;5016695;28;19929;-69
2024/02/11 11:15:52;;;;;;;;;;;3.70;100.00;;;;;;5038761;28;19935;-69
2024/02/11 11:18:23;;;;;;;;;;;3.70;100.00;;;;;;5043770;28;19975;-69
2024/02/11 11:20:52;;;;;;;;;;;3.70;100.00;;;;;;5023058;28;19929;-68
2024/02/11 11:23:19;;;;;;;;;;;3.70;100.00;;;;;;5026180;28;20015;-68
2024/02/11 11:25:53;;;;;;;;;;;3.70;100.00;;;;;;5037383;28;19933;-65
2024/02/11 11:28:19;;;;;;;;;;;3.70;100.00;;;;;;5034565;28;19936;-67
2024/02/11 11:30:46;;;;;;;;;;;3.70;100.00;;;;;;5030466;28;19941;-67
2024/02/11 11:33:13;;;;;;;;;;;3.80;100.00;;;;;;5013112;28;19975;-67
2024/02/11 11:35:41;;;;;;;;;;;3.80;100.00;;;;;;5030924;28;19936;-66
2024/02/11 11:38:07;;;;;;;;;;;3.80;100.00;;;;;;5028524;28;19968;-68
2024/02/11 11:40:36;;;;;;;;;;;3.80;100.00;;;;;;5030124;28;19936;-68
2024/02/11 11:43:14;;;;;;;;;;;3.80;100.00;;;;;;5032004;28;20273;-67
2024/02/11 11:45:50;;;;;;;;;;;3.80;100.00;;;;;;5036301;28;19929;-68
2024/02/11 11:48:17;;;;;;;;;;;3.80;100.00;;;;;;5043036;28;19940;-68
2024/02/11 11:50:44;;;;;;;;;;;3.80;100.00;;;;;;5019262;28;19943;-68
2024/02/11 11:53:19;;;;;;;;;;;3.80;100.00;;;;;;5035322;28;20566;-72
2024/02/11 11:55:50;;;;;;;;;;;3.80;100.00;;;;;;5038985;28;20429;-71
2024/02/11 11:58:17;;;;;;;;;;;3.80;100.00;;;;;;5035866;28;19939;-71
2024/02/11 12:00:57;;;;;;;;;;;3.90;100.00;;;;;;5028973;28;20678;-71
2024/02/11 12:03:24;;;;;;;;;;;3.90;100.00;;;;;;5041505;28;19936;-71
2024/02/11 12:05:51;;;;;;;;;;;3.90;100.00;;;;;;5026264;28;20734;-71
2024/02/11 12:08:18;;;;;;;;;;;3.90;100.00;;;;;;5044390;28;19933;-71
2024/02/11 12:11:00;;;;;;;;;;;3.90;100.00;;;;;;5037663;28;19933;-71
2024/02/11 12:13:30;;;;;;;;;;;3.90;100.00;;;;;;5044020;28;19982;-71
2024/02/11 12:15:57;;;;;;;;;;;3.90;100.00;;;;;;5028013;28;19960;-71
2024/02/11 12:18:27;;;;;;;;;;;3.90;100.00;;;;;;5022896;28;19929;-71
2024/02/11 12:20:55;;;;;;;;;;;3.90;100.00;;;;;;5024227;28;19929;-71
2024/02/11 12:23:23;;;;;;;;;;;3.90;100.00;;;;;;5025695;28;19940;-71
2024/02/11 12:25:50;;;;;;;;;;;3.90;100.00;;;;;;5024402;28;20835;-71
2024/02/11 12:28:25;;;;;;;;;;;3.90;100.00;;;;;;5025744;28;19925;-71
2024/02/11 12:31:02;;;;;;;;;;;3.80;100.00;;;;;;5025048;28;20444;-71
2024/02/11 12:33:29;;;;;;;;;;;3.80;100.00;;;;;;5029712;28;20336;-71
2024/02/11 12:35:56;;;;;;;;;;;3.80;100.00;;;;;;5030335;28;19937;-71
2024/02/11 12:38:22;;;;;;;;;;;3.80;100.00;;;;;;5019037;28;20017;-72
2024/02/11 12:40:49;;;;;;;;;;;3.80;100.00;;;;;;5044770;28;19975;-72
2024/02/11 12:43:16;;;;;;;;;;;3.90;100.00;;;;;;5040653;28;19933;-74
2024/02/11 12:45:42;;;;;;;;;;;3.90;100.00;;;;;;5039585;28;20069;-73
2024/02/11 12:48:09;;;;;;;;;;;3.90;100.00;;;;;;5027050;28;20025;-74
2024/02/11 12:50:36;;;;;;;;;;;3.90;100.00;;;;;;5046066;28;20340;-73
2024/02/11 12:53:04;;;;;;;;;;;3.90;100.00;;;;;;5045857;28;19983;-73
2024/02/11 12:55:34;;;;;;;;;;;4.00;100.00;;;;;;5044937;28;20147;-73
2024/02/11 12:58:03;;;;;;;;;;;4.00;100.00;;;;;;5039001;28;19928;-73
2024/02/11 13:00:29;;;;;;;;;;;4.10;100.00;;;;;;5039537;28;19975;-73
2024/02/11 13:02:56;;;;;;;;;;;4.10;100.00;;;;;;5025438;28;19940;-73
2024/02/11 13:05:23;;;;;;;;;;;4.10;100.00;;;;;;5025878;28;19970;-73
2024/02/11 13:07:54;;;;;;;;;;;4.00;100.00;;;;;;5013691;28;19932;-73
2024/02/11 13:10:46;;;;;;;;;;;4.10;100.00;;;;;;5038702;28;19935;-71
2024/02/11 13:13:13;;;;;;;;;;;4.10;100.00;;;;;;5032950;28;19929;-71
2024/02/11 13:15:40;;;;;;;;;;;4.00;100.00;;;;;;5025310;28;19936;-71
2024/02/11 13:18:07;;;;;;;;;;;4.10;100.00;;;;;;5007804;28;19929;-69
2024/02/11 13:20:34;;;;;;;;;;;4.10;100.00;;;;;;5006656;28;19929;-70
2024/02/11 13:23:01;;;;;;;;;;;4.10;100.00;;;;;;5018586;28;20525;-70
2024/02/11 13:25:27;;;;;;;;;;;4.10;100.00;;;;;;5022517;28;19929;-70
2024/02/11 13:27:54;;;;;;;;;;;4.10;100.00;;;;;;5033286;28;20449;-70
2024/02/11 13:30:22;;;;;;;;;;;4.10;100.00;;;;;;5038446;28;19933;-69
2024/02/11 13:32:52;;;;;;;;;;;4.00;100.00;;;;;;5034975;28;19971;-69
2024/02/11 13:35:19;;;;;;;;;;;4.10;100.00;;;;;;5036217;28;19938;-68
2024/02/11 13:37:46;;;;;;;;;;;4.00;100.00;;;;;;5010153;28;19933;-69
2024/02/11 13:40:13;;;;;;;;;;;4.10;100.00;;;;;;5018368;28;19929;-68
2024/02/11 13:42:40;;;;;;;;;;;4.10;100.00;;;;;;5043812;28;19937;-68
2024/02/11 13:45:13;;;;;;;;;;;4.10;100.00;;;;;;5034391;28;20038;-69
2024/02/11 13:47:42;;;;;;;;;;;4.10;100.00;;;;;;5038501;28;20043;-66
2024/02/11 13:50:10;;;;;;;;;;;4.10;100.00;;;;;;5027053;28;19936;-67
2024/02/11 13:52:39;;;;;;;;;;;4.10;100.00;;;;;;5037658;28;19929;-67
2024/02/11 13:55:09;;;;;;;;;;;4.10;100.00;;;;;;5010764;28;19933;-71
2024/02/11 13:57:36;;;;;;;;;;;4.10;100.00;;;;;;5025000;28;19937;-71
2024/02/11 14:00:04;;;;;;;;;;;4.10;100.00;;;;;;5030411;28;20487;-70
2024/02/11 14:02:33;;;;;;;;;;;4.10;100.00;;;;;;5027175;28;19929;-71
2024/02/11 14:05:01;;;;;;;;;;;4.10;100.00;;;;;;5028837;28;19929;-70
2024/02/11 14:07:28;;;;;;;;;;;4.10;100.00;;;;;;5028892;28;19936;-70
2024/02/11 14:09:55;;;;;;;;;;;4.10;100.00;;;;;;5047162;28;19932;-71
2024/02/11 14:12:22;;;;;;;;;;;4.10;100.00;;;;;;5048439;28;19935;-71
2024/02/11 14:14:51;;;;;;;;;;;4.10;100.00;;;;;;5022885;28;20729;-71
2024/02/11 14:17:18;;;;;;;;;;;4.10;100.00;;;;;;5015001;28;19925;-71
2024/02/11 14:19:45;;;;;;;;;;;4.10;100.00;;;;;;5048049;28;20493;-70
2024/02/11 14:22:12;;;;;;;;;;;4.00;100.00;;;;;;5028556;28;19936;-70